Flight Track Log - Related Links

Times and Time Zones

All times are in EDT time to prevent confusion due to time zone crossing. See the N7192Y flight status page for this flight to view local times or setup timezone preferences in your user account.

Time Position Orientation Groundspeed Altitude Reporting Facility
EDT Latitude Longitude Course Direction KTS MPH feet Rate Location/Type
Mon 07:45:42 AM 27.9167 -82.6833 336° Northwest 99 114 500  Level Tampa TRACON
Mon 07:46:55 AM 27.9500 -82.7000 336° Northwest 118 136 1,300 694 Climbing Tampa TRACON
Mon 07:47:43 AM 27.9667 -82.7167 319° Northwest 110 127 1,900 706 Climbing Tampa TRACON
Mon 07:48:37 AM 27.9833 -82.7500 300° West 111 128 2,500 650 Climbing Tampa TRACON
Mon 07:49:43 AM 27.9667 -82.7833 240° Southwest 117 135 3,200 619 Climbing Tampa TRACON
Mon 07:50:43 AM 27.9667 -82.8167 270° West 119 137 3,800 450 Climbing Tampa TRACON
Mon 07:51:43 AM 27.9833 -82.8500 300° West 129 148 4,100 158 Climbing Tampa TRACON
Mon 07:52:37 AM 28.0000 -82.8833 300° West 140 161 4,100  Level Tampa TRACON
Mon 07:53:43 AM 28.0500 -82.8833 360° North 145 167 4,100  Level Tampa TRACON
Mon 07:54:37 AM 28.0833 -82.8833 360° North 142 163 4,100  Level Tampa TRACON
Mon 07:55:37 AM 28.1167 -82.8667 24° Northeast 138 159 4,100 -50 Level Tampa TRACON
Mon 07:56:37 AM 28.1500 -82.8500 24° Northeast 144 166 4,000  Descending Tampa TRACON
Mon 07:57:37 AM 28.2000 -82.8333 16° North 147 169 4,100 333 Climbing Tampa TRACON
Mon 07:58:43 AM 28.2333 -82.8333 360° North 132 152 4,700 567 Climbing Tampa TRACON
Mon 07:59:44 AM 28.2667 -82.8167 24° Northeast 123 142 5,300 600 Climbing Tampa TRACON
Mon 08:00:43 AM 28.3000 -82.8167 360° North 114 131 5,900 632 Climbing Tampa TRACON
Mon 08:01:38 AM 28.3167 -82.8167 360° North 108 124 6,500 522 Climbing Tampa TRACON
Mon 08:02:38 AM 28.3500 -82.8333 336° Northwest 108 124 6,900 400 Climbing Tampa TRACON
Mon 08:03:38 AM 28.3833 -82.8333 360° North 112 129 7,300 381 Climbing Tampa TRACON
Mon 08:04:44 AM 28.4167 -82.8333 360° North 115 132 7,700 400 Climbing Tampa TRACON
Mon 08:05:38 AM 28.4500 -82.8500 336° Northwest 114 131 8,100 330 Climbing Tampa TRACON
Mon 08:06:15 AM 28.4672 -82.8478 North 152 175 8,200 62 Climbing Jacksonville Center
Mon 08:07:15 AM 28.5047 -82.8525 354° North 136 157 8,200  Level Jacksonville Center
Mon 08:08:15 AM 28.5381 -82.8594 350° North 129 148 8,200  Level Jacksonville Center
Mon 08:09:15 AM 28.5736 -82.8689 347° North 124 143 8,200  Level Jacksonville Center
Mon 08:10:15 AM 28.6133 -82.8761 351° North 124 143 8,200  Level Jacksonville Center
Mon 08:12:44 AM 28.7000 -82.8833 356° North 135 155 8,200  Level Tampa TRACON
Mon 08:13:44 AM 28.7500 -82.9000 344° North 136 157 8,200  Level Tampa TRACON
Mon 08:14:45 AM 28.7833 -82.9000 360° North 134 154 8,200  Level Tampa TRACON
Mon 08:15:51 AM 28.8219 -82.9092 348° North 161 185 8,200  Level Jacksonville Center
Mon 08:16:51 AM 28.8575 -82.9164 350° North 136 157 8,200  Level Jacksonville Center
Mon 08:17:51 AM 28.8928 -82.9233 350° North 125 144 8,200  Level Jacksonville Center
Mon 08:18:51 AM 28.9306 -82.9306 351° North 125 144 8,200  Level Jacksonville Center
Mon 08:19:51 AM 28.9681 -82.9378 350° North 125 144 8,200  Level Jacksonville Center
Mon 08:20:51 AM 29.0036 -82.9447 350° North 125 144 8,200 -50 Level Jacksonville Center
Mon 08:21:51 AM 29.0411 -82.9519 350° North 125 144 8,100 -50 Descending Jacksonville Center
Mon 08:22:51 AM 29.0808 -82.9567 354° North 125 144 8,100  Level Jacksonville Center
Mon 08:23:51 AM 29.1203 -82.9639 351° North 130 150 8,100  Level Jacksonville Center
Mon 08:24:51 AM 29.1581 -82.9711 351° North 137 158 8,100  Level Jacksonville Center
Mon 08:25:51 AM 29.1933 -82.9783 350° North 137 158 8,100  Level Jacksonville Center
Mon 08:26:51 AM 29.2353 -82.9853 352° North 142 163 8,100  Level Jacksonville Center
Mon 08:27:51 AM 29.2706 -82.9903 353° North 142 163 8,100  Level Jacksonville Center
Mon 08:28:51 AM 29.3103 -82.9997 348° North 142 163 8,100  Level Jacksonville Center
Mon 08:29:51 AM 29.3478 -83.0069 350° North 142 163 8,100  Level Jacksonville Center
Mon 08:30:51 AM 29.3875 -83.0142 351° North 142 163 8,100  Level Jacksonville Center
Mon 08:31:51 AM 29.4250 -83.0214 350° North 142 163 8,100  Level Jacksonville Center
Mon 08:32:51 AM 29.4628 -83.0261 354° North 142 163 8,100  Level Jacksonville Center
Mon 08:33:51 AM 29.5003 -83.0358 347° North 142 163 8,100  Level Jacksonville Center
Mon 08:34:51 AM 29.5400 -83.0406 354° North 142 163 8,100  Level Jacksonville Center
Mon 08:35:51 AM 29.5794 -83.0503 348° North 142 163 8,100  Level Jacksonville Center
Mon 08:36:51 AM 29.6172 -83.0575 351° North 142 163 8,100  Level Jacksonville Center
Mon 08:37:51 AM 29.6547 -83.0647 350° North 142 163 8,100  Level Jacksonville Center
Mon 08:38:51 AM 29.6944 -83.0719 351° North 142 163 8,100  Level Jacksonville Center
Mon 08:39:51 AM 29.7339 -83.0792 351° North 142 163 8,100  Level Jacksonville Center
Mon 08:40:51 AM 29.7717 -83.0864 351° North 142 163 8,100  Level Jacksonville Center
Mon 08:41:51 AM 29.8111 -83.0936 351° North 142 163 8,100  Level Jacksonville Center
Mon 08:42:51 AM 29.8489 -83.1008 351° North 142 163 8,100  Level Jacksonville Center
Mon 08:43:51 AM 29.8883 -83.1081 351° North 142 163 8,100  Level Jacksonville Center
Mon 08:44:51 AM 29.9281 -83.1156 351° North 142 163 8,100  Level Jacksonville Center
Mon 08:45:51 AM 29.9678 -83.1228 351° North 142 163 8,100  Level Jacksonville Center
Mon 08:46:51 AM 30.0053 -83.1325 347° North 142 163 8,100  Level Jacksonville Center
Mon 08:47:51 AM 30.0428 -83.1372 354° North 142 163 8,100  Level Jacksonville Center
Mon 08:48:51 AM 30.0806 -83.1447 350° North 142 163 8,100  Level Jacksonville Center
Mon 08:49:51 AM 30.1200 -83.1519 351° North 142 163 8,100  Level Jacksonville Center
Mon 08:50:51 AM 30.1597 -83.1617 348° North 142 163 8,100  Level Jacksonville Center
Mon 08:51:51 AM 30.1994 -83.1689 351° North 142 163 8,100  Level Jacksonville Center
Mon 08:52:51 AM 30.2369 -83.1764 350° North 142 163 8,100  Level Jacksonville Center
Mon 08:53:51 AM 30.2767 -83.1836 351° North 142 163 8,100  Level Jacksonville Center
Mon 08:54:51 AM 30.3164 -83.1908 351° North 142 163 8,100  Level Jacksonville Center
Mon 08:55:34 AM 30.3456 -83.1983 347° North 143 165 8,100  Level Jacksonville Center
Mon 08:55:51 AM 30.3558 -83.1983 360° North 142 163 8,100  Level Jacksonville Center
Mon 08:56:34 AM 30.3831 -83.2056 347° North 142 163 8,100  Level Jacksonville Center
Mon 08:56:51 AM 30.3956 -83.2056 360° North 142 163 8,100  Level Jacksonville Center
Mon 08:57:35 AM 30.4247 -83.2131 347° North 143 165 8,100  Level Jacksonville Center
Mon 08:57:51 AM 30.4353 -83.2131 360° North 142 163 8,100  Level Jacksonville Center
Mon 08:58:35 AM 30.4622 -83.2228 343° North 143 165 8,100  Level Jacksonville Center
Mon 08:58:51 AM 30.4728 -83.2228 360° North 142 163 8,100  Level Jacksonville Center
Mon 08:59:36 AM 30.5042 -83.2300 349° North 143 165 8,100 -100 Level Jacksonville Center
Mon 08:59:51 AM 30.5103 -83.2278 17° North 142 163 8,000  Descending Jacksonville Center
Mon 09:00:37 AM 30.5436 -83.2375 346° North 141 162 8,100 57 Climbing Jacksonville Center
Mon 09:01:37 AM 30.5814 -83.2472 348° North 140 161 8,100  Level Jacksonville Center
Mon 09:02:38 AM 30.6231 -83.2547 351° North 141 162 8,100  Level Jacksonville Center
Mon 09:03:38 AM 30.6586 -83.2622 350° North 141 162 8,100  Level Jacksonville Center
Mon 09:04:52 AM 30.7044 -83.2647 357° North 142 163 8,100  Level Jacksonville Center
Mon 09:05:46 AM 30.7419 -83.2769 344° North 140 161 8,100  Level Jacksonville Center
Mon 09:06:46 AM 30.7794 -83.2842 351° North 139 160 8,100  Level Jacksonville Center
Mon 09:07:47 AM 30.8214 -83.2869 357° North 142 163 8,100  Level Jacksonville Center
Mon 09:08:48 AM 30.8589 -83.2869 360° North 142 163 8,100 -99 Level Jacksonville Center
Mon 09:09:48 AM 30.9006 -83.2872 360° North 144 166 7,900 -298 Descending Jacksonville Center
Mon 09:10:49 AM 30.9444 -83.2897 357° North 157 181 7,500 -393 Descending Jacksonville Center
Mon 09:11:50 AM 30.9906 -83.2875 North 160 184 7,100 -198 Descending Jacksonville Center
Mon 09:12:50 AM 31.0322 -83.2878 360° North 152 175 7,100  Level Jacksonville Center
Mon 09:13:51 AM 31.0739 -83.2881 360° North 144 166 7,100 -49 Level Jacksonville Center
Mon 09:14:52 AM 31.1117 -83.2881 360° North 144 166 7,000 -50 Descending Jacksonville Center
Mon 09:15:51 AM 31.1511 -83.2858 North 144 166 7,000  Level Jacksonville Center
Mon 09:16:52 AM 31.1889 -83.2861 360° North 144 166 7,000  Level Jacksonville Center
Mon 09:17:52 AM 31.2306 -83.2861 360° North 144 166 7,000  Level Jacksonville Center
Mon 09:18:52 AM 31.2681 -83.2886 357° North 139 160 7,000  Level Jacksonville Center
Mon 09:19:51 AM 31.3058 -83.2864 North 139 160 7,000  Level Jacksonville Center
Mon 09:20:51 AM 31.3433 -83.2892 356° North 134 154 7,000  Level Jacksonville Center
Mon 09:21:56 AM 31.3850 -83.2942 354° North 135 155 7,000  Level Jacksonville Center
Mon 09:23:03 AM 31.4247 -83.2942 360° North 141 162 7,000  Level Jacksonville Center
Mon 09:24:03 AM 31.4644 -83.2944 360° North 141 162 7,000  Level Jacksonville Center
Mon 09:25:03 AM 31.4997 -83.2947 360° North 141 162 7,000 100 Level Jacksonville Center
Mon 09:26:03 AM 31.5353 -83.2972 357° North 141 162 7,200 400 Climbing Jacksonville Center
Mon 09:27:03 AM 31.5689 -83.2950 North 130 150 7,800 550 Climbing Jacksonville Center
Mon 09:28:03 AM 31.6000 -83.2925 North 114 131 8,300 450 Climbing Jacksonville Center
Mon 09:29:03 AM 31.6294 -83.2953 355° North 109 125 8,700 400 Climbing Jacksonville Center
Mon 09:30:03 AM 31.6628 -83.2978 356° North 104 120 9,100 200 Climbing Jacksonville Center
Mon 09:31:03 AM 31.6961 -83.2981 360° North 109 125 9,100  Level Jacksonville Center
Mon 09:32:03 AM 31.7358 -83.2981 360° North 121 139 9,100  Level Jacksonville Center
Mon 09:33:03 AM 31.7756 -83.2983 360° North 127 146 9,100  Level Jacksonville Center
Mon 09:34:03 AM 31.8131 -83.2983 360° North 133 153 9,100  Level Jacksonville Center
Mon 09:35:03 AM 31.8486 -83.3011 356° North 133 153 9,100  Level Jacksonville Center
Mon 09:36:03 AM 31.8883 -83.2986 North 139 160 9,100  Level Jacksonville Center
Mon 09:37:03 AM 31.9300 -83.3014 357° North 139 160 9,100  Level Jacksonville Center
Mon 09:38:03 AM 31.9656 -83.2967 North 139 160 9,100  Level Jacksonville Center
Mon 09:39:03 AM 32.0050 -83.2992 357° North 139 160 9,100 39 Level Jacksonville Center
Mon 09:40:38 AM 32.0667 -83.3000 359° North 136 157 9,200 39 Climbing Atlanta TRACON
Mon 09:41:38 AM 32.1000 -83.3000 360° North 136 157 9,200  Level Atlanta TRACON
Mon 09:42:38 AM 32.1500 -83.3000 360° North 137 158 9,200  Level Atlanta TRACON
Mon 09:43:38 AM 32.1833 -83.3000 360° North 133 153 9,200  Level Atlanta TRACON
Mon 09:44:32 AM 32.2167 -83.3000 360° North 136 157 9,200  Level Atlanta TRACON
Mon 09:45:32 AM 32.2500 -83.3000 360° North 131 151 9,200  Level Atlanta TRACON
Mon 09:46:32 AM 32.2833 -83.3000 360° North 133 153 9,200 -50 Level Atlanta TRACON
Mon 09:47:32 AM 32.3167 -83.3000 360° North 132 152 9,100 -48 Descending Atlanta TRACON
Mon 09:48:38 AM 32.3667 -83.3000 360° North 131 151 9,100  Level Atlanta TRACON
Mon 09:49:38 AM 32.4000 -83.3000 360° North 128 147 9,100  Level Atlanta TRACON
Mon 09:50:38 AM 32.4333 -83.3000 360° North 128 147 9,100  Level Atlanta TRACON
Mon 09:51:38 AM 32.4667 -83.3000 360° North 127 146 9,100  Level Atlanta TRACON
Mon 09:52:38 AM 32.5000 -83.3000 360° North 127 146 9,100  Level Atlanta TRACON
Mon 09:53:38 AM 32.5333 -83.3000 360° North 126 145 9,100  Level Atlanta TRACON
Mon 09:54:38 AM 32.5667 -83.3167 337° Northwest 127 146 9,100  Level Atlanta TRACON
Mon 09:55:38 AM 32.6000 -83.3167 360° North 125 144 9,100  Level Atlanta TRACON
Mon 09:56:39 AM 32.6500 -83.3167 360° North 125 144 9,100  Level Atlanta TRACON
Mon 09:57:39 AM 32.6833 -83.3167 360° North 125 144 9,100  Level Atlanta TRACON
Mon 09:58:39 AM 32.7167 -83.3167 360° North 126 145 9,100  Level Atlanta TRACON
Mon 09:59:39 AM 32.7500 -83.3167 360° North 123 142 9,100  Level Atlanta TRACON
Mon 10:00:39 AM 32.7833 -83.3167 360° North 126 145 9,100  Level Atlanta TRACON
Mon 10:01:39 AM 32.8167 -83.3167 360° North 125 144 9,100  Level Atlanta TRACON
Mon 10:02:39 AM 32.8500 -83.3167 360° North 125 144 9,100  Level Atlanta TRACON
Mon 10:03:39 AM 32.8833 -83.3167 360° North 127 146 9,100  Level Atlanta TRACON
Mon 10:04:39 AM 32.9167 -83.3167 360° North 128 147 9,100  Level Atlanta TRACON
Mon 10:05:39 AM 32.9667 -83.3167 360° North 127 146 9,100  Level Atlanta TRACON
Mon 10:06:39 AM 33.0000 -83.3167 360° North 126 145 9,100  Level Atlanta TRACON
Mon 10:07:33 AM 33.0167 -83.3167 360° North 127 146 9,100  Level Atlanta TRACON
Mon 10:08:33 AM 33.0667 -83.3167 360° North 128 147 9,100  Level Atlanta TRACON
Mon 10:09:34 AM 33.1000 -83.3167 360° North 128 147 9,100  Level Atlanta TRACON
Mon 10:10:34 AM 33.1333 -83.3167 360° North 127 146 9,100  Level Atlanta TRACON
Mon 10:11:40 AM 33.1667 -83.3167 360° North 126 145 9,100  Level Atlanta TRACON
Mon 10:12:40 AM 33.2000 -83.3167 360° North 128 147 9,100  Level Atlanta TRACON
Mon 10:13:40 AM 33.2333 -83.3167 360° North 130 150 9,100  Level Atlanta TRACON
Mon 10:14:40 AM 33.2667 -83.3167 360° North 128 147 9,100  Level Atlanta TRACON
Mon 10:15:40 AM 33.3167 -83.3167 360° North 128 147 9,100  Level Atlanta TRACON
Mon 10:16:40 AM 33.3500 -83.3167 360° North 128 147 9,100  Level Atlanta TRACON
Mon 10:17:40 AM 33.3833 -83.3167 360° North 128 147 9,100  Level Atlanta TRACON
Mon 10:18:40 AM 33.4167 -83.3167 360° North 130 150 9,100  Level Atlanta TRACON
Mon 10:19:40 AM 33.4500 -83.3167 360° North 127 146 9,100  Level Atlanta TRACON
Mon 10:20:40 AM 33.4833 -83.3167 360° North 130 150 9,100  Level Atlanta TRACON
Mon 10:21:40 AM 33.5333 -83.3167 360° North 132 152 9,100  Level Atlanta TRACON
Mon 10:22:41 AM 33.5667 -83.3167 360° North 130 150 9,100  Level Atlanta TRACON
Mon 10:23:41 AM 33.6000 -83.3167 360° North 129 148 9,100  Level Atlanta TRACON
Mon 10:24:41 AM 33.6333 -83.3333 337° Northwest 124 143 9,100  Level Atlanta TRACON
Mon 10:25:41 AM 33.6667 -83.3500 337° Northwest 128 147 9,100  Level Atlanta TRACON
Mon 10:26:47 AM 33.7000 -83.3500 360° North 125 144 9,100  Level Atlanta TRACON
Mon 10:27:47 AM 33.7333 -83.3500 360° North 125 144 9,100  Level Atlanta TRACON
Mon 10:28:32 AM 33.7672 -83.3642 341° North 127 146 9,100  Level Atlanta Center
Mon 10:29:32 AM 33.8008 -83.3714 350° North 127 146 9,100  Level Atlanta Center
Mon 10:30:32 AM 33.8342 -83.3811 346° North 127 146 9,100  Level Atlanta Center
Mon 10:31:32 AM 33.8678 -83.3858 353° North 127 146 9,100  Level Atlanta Center
Mon 10:32:32 AM 33.9011 -83.3956 346° North 127 146 9,100  Level Atlanta Center
Mon 10:33:32 AM 33.9367 -83.4028 350° North 127 146 9,100  Level Atlanta Center
Mon 10:34:32 AM 33.9700 -83.4100 350° North 127 146 9,100  Level Atlanta Center
Mon 10:35:32 AM 34.0056 -83.4147 354° North 122 140 9,100  Level Atlanta Center
Mon 10:36:32 AM 34.0431 -83.4247 348° North 129 148 9,100  Level Atlanta Center
Mon 10:37:32 AM 34.0744 -83.4344 346° North 121 139 9,100  Level Atlanta Center
Mon 10:38:32 AM 34.1100 -83.4392 354° North 121 139 9,100  Level Atlanta Center
Mon 10:39:32 AM 34.1475 -83.4489 348° North 127 146 9,100  Level Atlanta Center
Mon 10:40:32 AM 34.1769 -83.4539 352° North 127 146 9,100  Level Atlanta Center
Mon 10:41:32 AM 34.2125 -83.4636 347° North 126 145 9,100  Level Atlanta Center
Mon 10:42:32 AM 34.2481 -83.4733 347° North 121 139 9,100  Level Atlanta Center
Mon 10:43:32 AM 34.2833 -83.4806 350° North 126 145 9,100  Level Atlanta Center
Mon 10:44:32 AM 34.3189 -83.4856 353° North 126 145 9,100  Level Atlanta Center
Mon 10:45:32 AM 34.3544 -83.4928 350° North 126 145 9,100  Level Atlanta Center
Mon 10:46:32 AM 34.3878 -83.5025 346° North 126 145 9,100  Level Atlanta Center
Mon 10:47:32 AM 34.4192 -83.5100 349° North 120 138 9,100  Level Atlanta Center
Mon 10:48:32 AM 34.4547 -83.5172 350° North 120 138 9,100  Level Atlanta Center
Mon 10:49:32 AM 34.4903 -83.5247 350° North 125 144 9,100  Level Atlanta Center
Mon 10:50:32 AM 34.5258 -83.5344 347° North 125 144 9,100  Level Atlanta Center
Mon 10:51:32 AM 34.5592 -83.5419 350° North 125 144 9,100  Level Atlanta Center
Mon 10:52:31 AM 34.5947 -83.5492 351° North 125 144 9,100  Level Atlanta Center
Mon 10:53:31 AM 34.6344 -83.5592 348° North 120 138 9,100  Level Atlanta Center
Mon 10:54:31 AM 34.6700 -83.5664 351° North 130 150 9,100  Level Atlanta Center
Mon 10:55:32 AM 34.7033 -83.5739 350° North 123 142 9,100  Level Atlanta Center
Mon 10:56:31 AM 34.7347 -83.5814 349° North 123 142 9,100  Level Atlanta Center
Mon 10:57:31 AM 34.7681 -83.5886 350° North 123 142 9,100  Level Atlanta Center
Mon 10:58:31 AM 34.7994 -83.5961 349° North 123 142 9,100  Level Atlanta Center
Mon 10:59:31 AM 34.8328 -83.6036 350° North 123 142 9,100  Level Atlanta Center
Mon 11:00:31 AM 34.8661 -83.6136 346° North 123 142 9,100  Level Atlanta Center
Mon 11:01:31 AM 34.9017 -83.6183 354° North 123 142 9,100  Level Atlanta Center
Mon 11:02:31 AM 34.9331 -83.6283 345° North 118 136 9,100  Level Atlanta Center
Mon 11:03:31 AM 34.9664 -83.6333 353° North 118 136 9,100  Level Atlanta Center
Mon 11:04:32 AM 34.9978 -83.6408 349° North 118 136 9,100  Level Atlanta Center
Mon 11:05:31 AM 35.0292 -83.6508 345° North 118 136 9,100  Level Atlanta Center
Mon 11:06:31 AM 35.0625 -83.6581 350° North 118 136 9,100  Level Atlanta Center
Mon 11:07:32 AM 35.0939 -83.6631 353° North 118 136 9,100  Level Atlanta Center
Mon 11:08:31 AM 35.1253 -83.6706 349° North 112 129 9,100  Level Atlanta Center
Mon 11:09:31 AM 35.1586 -83.6781 350° North 112 129 9,100  Level Atlanta Center
Mon 11:10:31 AM 35.1900 -83.6881 345° North 112 129 9,100  Level Atlanta Center
Mon 11:11:31 AM 35.2233 -83.6931 353° North 112 129 9,100  Level Atlanta Center
Mon 11:12:31 AM 35.2567 -83.7006 350° North 112 129 9,100  Level Atlanta Center
Mon 11:13:31 AM 35.2900 -83.7081 350° North 112 129 9,100  Level Atlanta Center
Mon 11:14:31 AM 35.3236 -83.7181 346° North 112 129 9,100  Level Atlanta Center
Mon 11:15:31 AM 35.3547 -83.7231 353° North 112 129 9,100  Level Atlanta Center
Mon 11:16:31 AM 35.3861 -83.7331 345° North 112 129 9,100  Level Atlanta Center
Mon 11:17:31 AM 35.4175 -83.7381 353° North 112 129 9,100  Level Atlanta Center
Mon 11:18:31 AM 35.4508 -83.7456 350° North 112 129 9,100  Level Atlanta Center
Mon 11:19:31 AM 35.4842 -83.7531 350° North 112 129 9,100  Level Atlanta Center
Mon 11:20:31 AM 35.5178 -83.7503 North 112 129 9,100 -100 Level Atlanta Center
Mon 11:21:31 AM 35.5511 -83.7428 10° North 117 135 8,900 -400 Descending Atlanta Center
Mon 11:22:31 AM 35.5886 -83.7425 360° North 127 146 8,300 -614 Descending Atlanta Center
Mon 11:24:27 AM 35.6683 -83.7481 357° North 145 167 7,100 -573 Descending Indianapolis Center
Mon 11:25:29 AM 35.7094 -83.7528 355° North 146 168 6,600 -435 Descending Indianapolis Center
Mon 11:26:31 AM 35.7528 -83.7569 356° North 152 175 6,200 -244 Descending Indianapolis Center
Mon 11:27:32 AM 35.7964 -83.7628 354° North 157 181 6,100 -98 Descending Indianapolis Center
Mon 11:28:34 AM 35.8442 -83.7669 356° North 149 171 6,000 -48 Descending Indianapolis Center
Mon 11:29:36 AM 35.8839 -83.7708 355° North 145 167 6,000  Level Indianapolis Center
Mon 11:30:38 AM 35.9247 -83.7758 354° North 145 167 6,000  Level Indianapolis Center
Mon 11:31:40 AM 35.9661 -83.7789 357° North 147 169 6,000  Level Indianapolis Center
Mon 11:32:41 AM 36.0072 -83.7833 355° North 146 168 6,000  Level Indianapolis Center
Mon 11:33:19 AM 36.0308 -83.7897 348° North 148 170 6,000  Level Atlanta Center
Mon 11:34:19 AM 36.0706 -83.7947 354° North 143 165 6,000  Level Atlanta Center
Mon 11:35:19 AM 36.1103 -83.7972 357° North 143 165 6,000  Level Atlanta Center
Mon 11:36:19 AM 36.1519 -83.8022 354° North 143 165 6,000  Level Atlanta Center
Mon 11:37:19 AM 36.1958 -83.8072 355° North 143 165 6,000  Level Atlanta Center
Mon 11:38:19 AM 36.2353 -83.8097 357° North 143 165 6,000 50 Level Atlanta Center
Mon 11:39:19 AM 36.2811 -83.8147 355° North 148 170 6,100  Climbing Atlanta Center
Mon 11:40:19 AM 36.3231 -83.8172 357° North 148 170 6,000  Descending Atlanta Center
Mon 11:41:58 AM 36.3858 -83.8219 357° North 152 175 6,100 38 Climbing Indianapolis Center
Mon 11:42:59 AM 36.4350 -83.8267 356° North 149 171 6,100  Level Indianapolis Center
Mon 11:44:01 AM 36.4744 -83.8319 354° North 144 166 6,100 -48 Level Indianapolis Center
Mon 11:45:03 AM 36.5122 -83.8353 356° North 143 165 6,000  Descending Indianapolis Center
Mon 11:46:05 AM 36.5536 -83.8386 356° North 146 168 6,100  Climbing Indianapolis Center
Mon 11:47:07 AM 36.5944 -83.8444 353° North 147 169 6,000 -48 Descending Indianapolis Center
Mon 11:48:09 AM 36.6425 -83.8492 355° North 148 170 6,000  Level Indianapolis Center
Mon 11:49:11 AM 36.6847 -83.8525 356° North 150 173 6,000  Level Indianapolis Center
Mon 11:50:13 AM 36.7278 -83.8581 354° North 153 176 6,000  Level Indianapolis Center
Mon 11:51:15 AM 36.7683 -83.8614 356° North 149 171 6,000  Level Indianapolis Center
Mon 11:52:17 AM 36.8094 -83.8658 355° North 149 171 6,000 48 Level Indianapolis Center
Mon 11:53:19 AM 36.8522 -83.8711 354° North 152 175 6,100 48 Climbing Indianapolis Center
Mon 11:54:21 AM 36.8997 -83.8753 356° North 148 170 6,100  Level Indianapolis Center
Mon 11:55:23 AM 36.9403 -83.8803 354° North 146 168 6,100  Level Indianapolis Center
Mon 11:56:25 AM 36.9819 -83.8847 355° North 148 170 6,100 -48 Level Indianapolis Center
Mon 11:57:27 AM 37.0256 -83.8869 358° North 154 177 6,000  Descending Indianapolis Center
Mon 11:58:29 AM 37.0669 -83.8928 354° North 152 175 6,100 48 Climbing Indianapolis Center
Mon 11:59:31 AM 37.1083 -83.8975 355° North 149 171 6,100  Level Indianapolis Center
Mon 12:00:32 PM 37.1572 -83.9033 355° North 151 174 6,100 -49 Level Indianapolis Center
Mon 12:01:34 PM 37.1997 -83.9072 356° North 153 176 6,000 -48 Descending Indianapolis Center
Mon 12:02:36 PM 37.2425 -83.9117 355° North 153 176 6,000 48 Level Indianapolis Center
Mon 12:03:38 PM 37.2839 -83.9164 355° North 150 173 6,100  Climbing Indianapolis Center
Mon 12:04:40 PM 37.3272 -83.9208 355° North 155 178 6,000  Descending Indianapolis Center
Mon 12:05:42 PM 37.3683 -83.9236 357° North 150 173 6,100 48 Climbing Indianapolis Center
Mon 12:06:44 PM 37.4172 -83.9311 353° North 150 173 6,100 -48 Level Indianapolis Center
Mon 12:07:46 PM 37.4589 -83.9319 359° North 149 171 6,000  Descending Indianapolis Center
Mon 12:08:47 PM 37.5011 -83.9386 353° North 152 175 6,100 49 Climbing Indianapolis Center
Mon 12:09:49 PM 37.5422 -83.9436 354° North 150 173 6,100  Level Indianapolis Center
Mon 12:10:51 PM 37.5811 -83.9481 355° North 143 165 6,100  Level Indianapolis Center
Mon 12:11:53 PM 37.6242 -83.9525 355° North 151 174 6,100  Level Indianapolis Center
Mon 12:12:55 PM 37.6722 -83.9558 357° North 149 171 6,100  Level Indianapolis Center
Mon 12:13:57 PM 37.7117 -83.9614 354° North 144 166 6,100  Level Indianapolis Center
Mon 12:14:59 PM 37.7547 -83.9664 355° North 151 174 6,100  Level Indianapolis Center
Mon 12:16:00 PM 37.7958 -83.9686 358° North 150 173 6,100  Level Indianapolis Center
Mon 12:17:02 PM 37.8381 -83.9753 353° North 150 173 6,100  Level Indianapolis Center
Mon 12:18:04 PM 37.8817 -83.9800 355° North 154 177 6,100  Level Indianapolis Center
Mon 12:19:06 PM 37.9247 -83.9836 356° North 155 178 6,100  Level Indianapolis Center
Mon 12:20:08 PM 37.9750 -83.9892 355° North 155 178 6,100  Level Indianapolis Center
Mon 12:21:09 PM 38.0178 -83.9933 356° North 154 177 6,100  Level Indianapolis Center
Mon 12:22:11 PM 38.0583 -83.9961 357° North 150 173 6,100  Level Indianapolis Center
Mon 12:23:13 PM 38.0994 -84.0019 354° North 148 170 6,100  Level Indianapolis Center
Mon 12:24:15 PM 38.1392 -84.0056 356° North 146 168 6,100  Level Indianapolis Center
Mon 12:25:16 PM 38.1794 -84.0108 354° North 145 167 6,100  Level Indianapolis Center
Mon 12:26:18 PM 38.2289 -84.0161 355° North 149 171 6,100  Level Indianapolis Center
Mon 12:27:20 PM 38.2714 -84.0197 356° North 150 173 6,100  Level Indianapolis Center
Mon 12:28:21 PM 38.3139 -84.0253 354° North 152 175 6,100  Level Indianapolis Center
Mon 12:29:23 PM 38.3539 -84.0292 356° North 148 170 6,100  Level Indianapolis Center
Mon 12:30:25 PM 38.3961 -84.0333 356° North 151 174 6,100  Level Indianapolis Center
Mon 12:31:26 PM 38.4389 -84.0389 354° North 153 176 6,100  Level Indianapolis Center
Mon 12:32:28 PM 38.4808 -84.0431 356° North 152 175 6,100  Level Indianapolis Center
Mon 12:33:30 PM 38.5275 -84.0486 355° North 145 167 6,100  Level Indianapolis Center
Mon 12:34:31 PM 38.5692 -84.0522 356° North 149 171 6,100  Level Indianapolis Center
Mon 12:35:33 PM 38.6108 -84.0561 356° North 149 171 6,100 -48 Level Indianapolis Center
Mon 12:36:35 PM 38.6483 -84.0639 351° North 151 174 6,000 -49 Descending Indianapolis Center
Mon 12:37:36 PM 38.6989 -84.0672 357° North 154 177 6,000  Level Indianapolis Center
Mon 12:38:38 PM 38.7428 -84.0708 356° North 156 180 6,000  Level Indianapolis Center
Mon 12:39:40 PM 38.7828 -84.0769 353° North 146 168 6,000  Level Indianapolis Center
Mon 12:40:41 PM 38.8244 -84.0792 358° North 147 169 6,000  Level Indianapolis Center
Mon 12:41:43 PM 38.8644 -84.0847 354° North 145 167 6,000  Level Indianapolis Center
Mon 12:42:45 PM 38.9058 -84.0875 357° North 147 169 6,000  Level Indianapolis Center
Mon 12:43:46 PM 38.9475 -84.0947 352° North 148 170 6,000  Level Indianapolis Center
Mon 12:44:48 PM 38.9869 -84.0997 354° North 143 165 6,000  Level Indianapolis Center
Mon 12:45:50 PM 39.0275 -84.1042 355° North 144 166 6,000  Level Indianapolis Center
Mon 12:46:51 PM 39.0681 -84.1131 350° North 147 169 6,000  Level Indianapolis Center
Mon 12:47:53 PM 39.1136 -84.1167 356° North 141 162 6,000  Level Indianapolis Center
Mon 12:48:55 PM 39.1531 -84.1225 353° North 141 162 6,000  Level Indianapolis Center
Mon 12:49:56 PM 39.1928 -84.1278 354° North 141 162 6,000  Level Indianapolis Center
Mon 12:50:36 PM 39.2222 -84.1308 355° North 149 171 6,000  Level Indianapolis Center
Mon 12:50:58 PM 39.2356 -84.1336 351° North 146 168 6,000  Level Indianapolis Center
Mon 12:51:31 PM 39.2592 -84.1383 351° North 153 176 6,000  Level Indianapolis Center
Mon 12:52:00 PM 39.2778 -84.1392 358° North 149 171 6,000  Level Indianapolis Center
Mon 12:52:37 PM 39.3050 -84.1444 351° North 154 177 6,000  Level Indianapolis Center
Mon 12:53:01 PM 39.3203 -84.1461 355° North 151 174 6,000  Level Indianapolis Center
Mon 12:53:39 PM 39.3486 -84.1500 354° North 142 163 6,000  Level Indianapolis Center
Mon 12:54:03 PM 39.3608 -84.1497 North 148 170 6,000  Level Indianapolis Center
Mon 12:54:45 PM 39.3900 -84.1556 351° North 141 162 6,000  Level Indianapolis Center
Mon 12:55:05 PM 39.3997 -84.1558 359° North 144 166 6,000 109 Level Indianapolis Center
Mon 12:55:40 PM 39.4275 -84.1578 357° North 146 168 6,100  Climbing Indianapolis Center
Mon 12:56:07 PM 39.4408 -84.1597 354° North 145 167 6,000 -98 Descending Indianapolis Center
Mon 12:56:41 PM 39.4689 -84.1631 355° North 146 168 6,000  Level Indianapolis Center
Mon 12:57:08 PM 39.4822 -84.1650 354° North 146 168 6,000  Level Indianapolis Center
Mon 12:57:36 PM 39.5083 -84.1708 350° North 154 177 6,000  Level Indianapolis Center
Mon 12:58:10 PM 39.5325 -84.1719 358° North 150 173 6,000  Level Indianapolis Center
Mon 12:58:43 PM 39.5542 -84.1742 355° North 139 160 6,000  Level Indianapolis Center
Mon 12:59:12 PM 39.5703 -84.1772 352° North 145 167 6,000 -269 Level Indianapolis Center
Mon 12:59:50 PM 39.5933 -84.1794 356° North 130 150 5,700 -590 Descending Indianapolis Center
Mon 01:00:13 PM 39.6067 -84.1831 348° North 137 158 5,400 -787 Descending Indianapolis Center
Mon 01:00:51 PM 39.6308 -84.1844 357° North 134 154 4,900 -677 Descending Indianapolis Center
Mon 01:01:15 PM 39.6442 -84.1869 352° North 134 154 4,700 -655 Descending Indianapolis Center
Mon 01:01:46 PM 39.6639 -84.1914 350° North 137 158 4,300 -774 Descending Indianapolis Center
Mon 01:02:17 PM 39.6822 -84.1925 357° North 135 155 3,900 -778 Descending Indianapolis Center
Mon 01:02:40 PM 39.6969 -84.1958 350° North 128 147 3,600 -677 Descending Indianapolis Center
Mon 01:03:19 PM 39.7172 -84.1964 359° North 131 151 3,200 -590 Descending Indianapolis Center
Mon 01:03:41 PM 39.7325 -84.1978 356° North 127 146 3,000 -197 Descending Indianapolis Center
Mon 01:04:20 PM 39.7528 -84.2014 352° North 128 147 3,000  Level Indianapolis Center
Mon 01:04:42 PM 39.7653 -84.2050 347° North 122 140 3,000 97 Level Indianapolis Center
Mon 01:05:22 PM 39.7844 -84.2036 North 122 140 3,100 -179 Climbing Indianapolis Center
Mon 01:05:49 PM 39.7983 -84.1875 42° Northeast 120 138 2,800 -581 Descending Indianapolis Center
Mon 01:06:24 PM 39.8092 -84.1719 48° Northeast 123 142 2,500 -393 Descending Indianapolis Center
Mon 01:06:50 PM 39.8236 -84.1583 36° Northeast 118 136 2,400  Descending Indianapolis Center
Mon 01:07:25 PM 39.8358 -84.1475 34° Northeast 120 138 2,500  Climbing Indianapolis Center
Mon 01:07:50 PM 39.8503 -84.1400 22° Northeast 111 128 2,400 -97 Descending Indianapolis Center
Mon 01:08:27 PM 39.8700 -84.1389 North 112 129 2,400 -182 Level Indianapolis Center
Mon 01:09:29 PM 39.8983 -84.1453 350° North 106 122 2,100 -330 Descending Indianapolis Center
Mon 01:09:58 PM 39.9075 -84.1558 319° Northwest 87 100 1,900 -387 Descending Indianapolis Center
Mon 01:10:31 PM 39.9150 -84.1681 309° West 98 113 1,700 -393 Descending Indianapolis Center
Mon 01:10:59 PM 39.9119 -84.1808 253° West 81 93 1,500 -429 Descending Indianapolis Center
Mon 01:12:00 PM 39.9000 -84.2167 270° West  Level FlightAware Approximate
Mon 01:19:00 PM 39.9022 -84.2194 270° West  Level Estimated

Login

Don't have an account? Register now (free) for customized features, flight alerts, and more!